sensor_id;sensor_type;location;lat;lon;timestamp;pressure;altitude;pressure_sealevel;temperature;humidity
13407;BME280;6774;48.208;10.766;2023-12-14T00:01:35;94442.78;;;6.09;93.43
13407;BME280;6774;48.208;10.766;2023-12-14T00:04:05;94441.34;;;6.07;93.91
13407;BME280;6774;48.208;10.766;2023-12-14T00:06:33;94441.34;;;6.07;94.13
13407;BME280;6774;48.208;10.766;2023-12-14T00:09:01;94448.22;;;6.08;94.33
13407;BME280;6774;48.208;10.766;2023-12-14T00:11:29;94449.00;;;6.08;94.33
13407;BME280;6774;48.208;10.766;2023-12-14T00:13:56;94456.25;;;6.06;94.39
13407;BME280;6774;48.208;10.766;2023-12-14T00:16:24;94454.69;;;6.12;94.67
13407;BME280;6774;48.208;10.766;2023-12-14T00:18:52;94460.97;;;6.32;94.10
13407;BME280;6774;48.208;10.766;2023-12-14T00:21:21;94465.13;;;6.48;93.40
13407;BME280;6774;48.208;10.766;2023-12-14T00:23:49;94468.53;;;6.27;93.40
13407;BME280;6774;48.208;10.766;2023-12-14T00:26:17;94475.66;;;6.54;92.87
13407;BME280;6774;48.208;10.766;2023-12-14T00:28:45;94480.34;;;6.38;92.74
13407;BME280;6774;48.208;10.766;2023-12-14T00:31:13;94482.56;;;6.19;93.79
13407;BME280;6774;48.208;10.766;2023-12-14T00:33:40;94480.22;;;6.24;93.29
13407;BME280;6774;48.208;10.766;2023-12-14T00:36:09;94480.91;;;6.33;93.02
13407;BME280;6774;48.208;10.766;2023-12-14T00:38:38;94490.28;;;6.42;92.86
13407;BME280;6774;48.208;10.766;2023-12-14T00:41:06;94487.88;;;6.26;92.12
13407;BME280;6774;48.208;10.766;2023-12-14T00:43:34;94486.66;;;6.22;92.18
13407;BME280;6774;48.208;10.766;2023-12-14T00:46:03;94501.59;;;6.07;92.62
13407;BME280;6774;48.208;10.766;2023-12-14T00:48:31;94506.50;;;5.95;93.13
13407;BME280;6774;48.208;10.766;2023-12-14T00:50:58;94512.16;;;5.98;93.21
13407;BME280;6774;48.208;10.766;2023-12-14T00:53:26;94517.53;;;6.12;93.08
13407;BME280;6774;48.208;10.766;2023-12-14T00:55:55;94517.31;;;6.07;92.91
13407;BME280;6774;48.208;10.766;2023-12-14T00:58:23;94520.75;;;5.92;93.59
13407;BME280;6774;48.208;10.766;2023-12-14T01:00:51;94519.13;;;5.91;93.43
13407;BME280;6774;48.208;10.766;2023-12-14T01:03:21;94525.34;;;5.90;93.53
13407;BME280;6774;48.208;10.766;2023-12-14T01:05:49;94527.94;;;5.76;94.22
13407;BME280;6774;48.208;10.766;2023-12-14T01:08:16;94529.13;;;5.88;94.18
13407;BME280;6774;48.208;10.766;2023-12-14T01:10:44;94537.72;;;5.67;95.36
13407;BME280;6774;48.208;10.766;2023-12-14T01:13:14;94534.91;;;5.83;94.66
13407;BME280;6774;48.208;10.766;2023-12-14T01:15:41;94547.81;;;5.70;94.62
13407;BME280;6774;48.208;10.766;2023-12-14T01:18:09;94538.88;;;5.79;94.78
13407;BME280;6774;48.208;10.766;2023-12-14T01:20:39;94551.06;;;5.87;94.05
13407;BME280;6774;48.208;10.766;2023-12-14T01:23:08;94560.63;;;5.80;94.28
13407;BME280;6774;48.208;10.766;2023-12-14T01:25:37;94563.91;;;5.67;94.72
13407;BME280;6774;48.208;10.766;2023-12-14T01:28:04;94558.75;;;5.59;94.58
13407;BME280;6774;48.208;10.766;2023-12-14T01:30:34;94569.50;;;5.49;95.07
13407;BME280;6774;48.208;10.766;2023-12-14T01:33:02;94562.50;;;5.27;95.06
13407;BME280;6774;48.208;10.766;2023-12-14T01:35:30;94570.72;;;5.38;94.61
13407;BME280;6774;48.208;10.766;2023-12-14T01:37:58;94585.44;;;5.39;94.86
13407;BME280;6774;48.208;10.766;2023-12-14T01:40:26;94585.34;;;5.33;95.04
13407;BME280;6774;48.208;10.766;2023-12-14T01:42:54;94589.53;;;5.19;95.18
13407;BME280;6774;48.208;10.766;2023-12-14T01:45:21;94596.75;;;5.17;95.60
13407;BME280;6774;48.208;10.766;2023-12-14T01:47:50;94599.41;;;5.32;95.17
13407;BME280;6774;48.208;10.766;2023-12-14T01:50:18;94606.25;;;5.33;94.77
13407;BME280;6774;48.208;10.766;2023-12-14T01:52:46;94604.84;;;5.07;96.02
13407;BME280;6774;48.208;10.766;2023-12-14T01:55:14;94617.66;;;5.17;96.19
13407;BME280;6774;48.208;10.766;2023-12-14T01:57:42;94620.34;;;5.09;95.87
13407;BME280;6774;48.208;10.766;2023-12-14T02:00:17;94622.34;;;5.07;95.46
13407;BME280;6774;48.208;10.766;2023-12-14T02:02:48;94631.75;;;5.16;95.60
13407;BME280;6774;48.208;10.766;2023-12-14T02:05:17;94634.97;;;5.18;95.36
13407;BME280;6774;48.208;10.766;2023-12-14T02:07:45;94638.72;;;5.01;95.27
13407;BME280;6774;48.208;10.766;2023-12-14T02:10:13;94643.00;;;5.17;94.82
13407;BME280;6774;48.208;10.766;2023-12-14T02:12:41;94646.00;;;5.13;94.85
13407;BME280;6774;48.208;10.766;2023-12-14T02:15:09;94656.38;;;5.22;94.54
13407;BME280;6774;48.208;10.766;2023-12-14T02:17:37;94654.28;;;5.17;94.71
13407;BME280;6774;48.208;10.766;2023-12-14T02:20:06;94652.66;;;5.16;94.71
13407;BME280;6774;48.208;10.766;2023-12-14T02:22:36;94654.28;;;5.17;94.72
13407;BME280;6774;48.208;10.766;2023-12-14T02:25:05;94652.41;;;5.26;94.32
13407;BME280;6774;48.208;10.766;2023-12-14T02:27:33;94660.31;;;5.40;93.93
13407;BME280;6774;48.208;10.766;2023-12-14T02:30:00;94669.88;;;5.48;93.09
13407;BME280;6774;48.208;10.766;2023-12-14T02:32:28;94664.81;;;5.47;92.93
13407;BME280;6774;48.208;10.766;2023-12-14T02:34:56;94677.16;;;5.61;92.41
13407;BME280;6774;48.208;10.766;2023-12-14T02:37:24;94682.00;;;5.64;92.46
13407;BME280;6774;48.208;10.766;2023-12-14T02:39:53;94674.78;;;5.66;91.94
13407;BME280;6774;48.208;10.766;2023-12-14T02:42:21;94679.47;;;5.56;92.19
13407;BME280;6774;48.208;10.766;2023-12-14T02:44:49;94679.84;;;5.53;92.77
13407;BME280;6774;48.208;10.766;2023-12-14T02:47:17;94680.75;;;5.60;92.33
13407;BME280;6774;48.208;10.766;2023-12-14T02:49:45;94680.84;;;5.66;92.06
13407;BME280;6774;48.208;10.766;2023-12-14T02:52:13;94691.84;;;5.62;91.65
13407;BME280;6774;48.208;10.766;2023-12-14T02:54:41;94688.88;;;5.65;91.89
13407;BME280;6774;48.208;10.766;2023-12-14T02:57:10;94694.78;;;5.67;91.69
13407;BME280;6774;48.208;10.766;2023-12-14T02:59:38;94696.59;;;5.81;91.55
13407;BME280;6774;48.208;10.766;2023-12-14T03:02:06;94697.94;;;5.77;91.32
13407;BME280;6774;48.208;10.766;2023-12-14T03:04:34;94700.09;;;5.74;91.54
13407;BME280;6774;48.208;10.766;2023-12-14T03:07:05;94706.78;;;5.76;91.85
13407;BME280;6774;48.208;10.766;2023-12-14T03:09:33;94706.44;;;5.79;91.62
13407;BME280;6774;48.208;10.766;2023-12-14T03:12:01;94705.94;;;5.76;91.52
13407;BME280;6774;48.208;10.766;2023-12-14T03:14:32;94706.94;;;5.60;91.91
13407;BME280;6774;48.208;10.766;2023-12-14T03:17:00;94716.34;;;5.46;93.39
13407;BME280;6774;48.208;10.766;2023-12-14T03:19:29;94710.59;;;5.51;93.63
13407;BME280;6774;48.208;10.766;2023-12-14T03:21:57;94711.13;;;5.46;94.12
13407;BME280;6774;48.208;10.766;2023-12-14T03:24:24;94713.31;;;5.57;93.99
13407;BME280;6774;48.208;10.766;2023-12-14T03:26:52;94726.13;;;5.52;94.54
13407;BME280;6774;48.208;10.766;2023-12-14T03:29:20;94715.19;;;5.49;94.61
13407;BME280;6774;48.208;10.766;2023-12-14T03:31:49;94720.34;;;5.57;94.84
13407;BME280;6774;48.208;10.766;2023-12-14T03:34:17;94731.47;;;5.59;94.40
13407;BME280;6774;48.208;10.766;2023-12-14T03:36:45;94732.16;;;5.53;94.59
13407;BME280;6774;48.208;10.766;2023-12-14T03:39:13;94736.78;;;5.65;94.73
13407;BME280;6774;48.208;10.766;2023-12-14T03:41:41;94733.66;;;5.70;94.47
13407;BME280;6774;48.208;10.766;2023-12-14T03:44:09;94743.53;;;5.83;94.13
13407;BME280;6774;48.208;10.766;2023-12-14T03:46:37;94752.78;;;5.93;93.34
13407;BME280;6774;48.208;10.766;2023-12-14T03:49:06;94746.22;;;5.97;93.09
13407;BME280;6774;48.208;10.766;2023-12-14T03:51:35;94750.53;;;5.90;92.99
13407;BME280;6774;48.208;10.766;2023-12-14T03:54:03;94753.00;;;5.84;93.40
13407;BME280;6774;48.208;10.766;2023-12-14T03:56:31;94755.53;;;5.77;93.81
13407;BME280;6774;48.208;10.766;2023-12-14T03:58:59;94760.03;;;5.83;93.86
13407;BME280;6774;48.208;10.766;2023-12-14T04:01:27;94762.28;;;5.71;93.68
13407;BME280;6774;48.208;10.766;2023-12-14T04:03:55;94771.47;;;5.90;93.50
13407;BME280;6774;48.208;10.766;2023-12-14T04:06:24;94774.94;;;5.83;93.59
13407;BME280;6774;48.208;10.766;2023-12-14T04:08:52;94783.25;;;5.94;93.22
13407;BME280;6774;48.208;10.766;2023-12-14T04:11:21;94777.28;;;6.01;93.01
13407;BME280;6774;48.208;10.766;2023-12-14T04:13:48;94784.09;;;5.87;93.03
13407;BME280;6774;48.208;10.766;2023-12-14T04:16:19;94793.56;;;5.88;93.26
13407;BME280;6774;48.208;10.766;2023-12-14T04:18:51;94792.13;;;5.85;93.39
13407;BME280;6774;48.208;10.766;2023-12-14T04:21:20;94797.56;;;5.76;94.49
13407;BME280;6774;48.208;10.766;2023-12-14T04:23:49;94796.69;;;5.83;93.87
13407;BME280;6774;48.208;10.766;2023-12-14T04:26:17;94793.56;;;5.88;93.88
13407;BME280;6774;48.208;10.766;2023-12-14T04:28:44;94792.75;;;5.87;93.80
13407;BME280;6774;48.208;10.766;2023-12-14T04:31:12;94803.91;;;5.81;93.83
13407;BME280;6774;48.208;10.766;2023-12-14T04:33:40;94806.28;;;5.76;94.35
13407;BME280;6774;48.208;10.766;2023-12-14T04:36:09;94814.56;;;5.80;94.63
13407;BME280;6774;48.208;10.766;2023-12-14T04:38:36;94807.16;;;5.83;94.16
13407;BME280;6774;48.208;10.766;2023-12-14T04:41:06;94819.06;;;5.94;94.04
13407;BME280;6774;48.208;10.766;2023-12-14T04:43:33;94826.22;;;6.00;93.19
13407;BME280;6774;48.208;10.766;2023-12-14T04:46:01;94823.84;;;6.13;93.17
13407;BME280;6774;48.208;10.766;2023-12-14T04:48:29;94835.47;;;6.11;92.63
13407;BME280;6774;48.208;10.766;2023-12-14T04:50:57;94836.41;;;6.18;92.35
13407;BME280;6774;48.208;10.766;2023-12-14T04:53:25;94840.75;;;6.25;91.97
13407;BME280;6774;48.208;10.766;2023-12-14T04:55:53;94844.00;;;6.27;92.26
13407;BME280;6774;48.208;10.766;2023-12-14T04:58:22;94856.22;;;6.35;91.90
13407;BME280;6774;48.208;10.766;2023-12-14T05:00:50;94854.59;;;6.34;91.71
13407;BME280;6774;48.208;10.766;2023-12-14T05:03:18;94861.41;;;6.43;91.44
13407;BME280;6774;48.208;10.766;2023-12-14T05:05:46;94862.56;;;6.41;91.16
13407;BME280;6774;48.208;10.766;2023-12-14T05:08:13;94860.66;;;6.35;91.17
13407;BME280;6774;48.208;10.766;2023-12-14T05:10:41;94861.91;;;6.39;90.78
13407;BME280;6774;48.208;10.766;2023-12-14T05:13:09;94873.13;;;6.47;90.55
13407;BME280;6774;48.208;10.766;2023-12-14T05:15:38;94884.34;;;6.41;90.98
13407;BME280;6774;48.208;10.766;2023-12-14T05:18:06;94886.78;;;6.43;90.81
13407;BME280;6774;48.208;10.766;2023-12-14T05:20:34;94888.28;;;6.37;90.80
13407;BME280;6774;48.208;10.766;2023-12-14T05:23:02;94895.47;;;6.43;90.85
13407;BME280;6774;48.208;10.766;2023-12-14T05:25:30;94892.91;;;6.35;90.99
13407;BME280;6774;48.208;10.766;2023-12-14T05:27:58;94897.84;;;6.30;91.12
13407;BME280;6774;48.208;10.766;2023-12-14T05:30:26;94900.13;;;6.33;91.09
13407;BME280;6774;48.208;10.766;2023-12-14T05:32:55;94897.63;;;6.17;91.30
13407;BME280;6774;48.208;10.766;2023-12-14T05:35:23;94915.66;;;6.12;91.90
13407;BME280;6774;48.208;10.766;2023-12-14T05:37:51;94915.63;;;6.20;91.57
13407;BME280;6774;48.208;10.766;2023-12-14T05:40:19;94916.28;;;6.22;91.68
13407;BME280;6774;48.208;10.766;2023-12-14T05:42:47;94921.03;;;6.18;91.64
13407;BME280;6774;48.208;10.766;2023-12-14T05:45:15;94940.72;;;6.14;91.62
13407;BME280;6774;48.208;10.766;2023-12-14T05:47:45;94928.84;;;6.04;92.38
13407;BME280;6774;48.208;10.766;2023-12-14T05:50:14;94935.13;;;5.94;93.38
13407;BME280;6774;48.208;10.766;2023-12-14T05:52:42;94935.34;;;6.08;92.79
13407;BME280;6774;48.208;10.766;2023-12-14T05:55:12;94949.44;;;6.07;92.83
13407;BME280;6774;48.208;10.766;2023-12-14T05:57:40;94942.56;;;6.06;93.10
13407;BME280;6774;48.208;10.766;2023-12-14T06:00:08;94956.66;;;6.05;93.14
13407;BME280;6774;48.208;10.766;2023-12-14T06:02:36;94957.72;;;6.18;92.90
13407;BME280;6774;48.208;10.766;2023-12-14T06:05:06;94958.88;;;6.16;92.62
13407;BME280;6774;48.208;10.766;2023-12-14T06:07:36;94960.50;;;6.17;93.01
13407;BME280;6774;48.208;10.766;2023-12-14T06:10:05;94968.72;;;6.14;92.91
13407;BME280;6774;48.208;10.766;2023-12-14T06:12:33;94969.34;;;6.16;92.92
13407;BME280;6774;48.208;10.766;2023-12-14T06:15:01;94974.59;;;6.16;92.67
13407;BME280;6774;48.208;10.766;2023-12-14T06:17:29;94978.50;;;6.20;92.22
13407;BME280;6774;48.208;10.766;2023-12-14T06:19:58;94990.28;;;6.24;91.70
13407;BME280;6774;48.208;10.766;2023-12-14T06:22:26;94987.69;;;6.16;91.44
13407;BME280;6774;48.208;10.766;2023-12-14T06:24:55;95000.44;;;6.19;91.44
13407;BME280;6774;48.208;10.766;2023-12-14T06:27:23;95011.63;;;6.13;91.40
13407;BME280;6774;48.208;10.766;2023-12-14T06:29:53;95011.94;;;6.10;91.83
13407;BME280;6774;48.208;10.766;2023-12-14T06:32:20;95014.06;;;6.14;91.87
13407;BME280;6774;48.208;10.766;2023-12-14T06:34:48;95015.28;;;6.04;92.66
13407;BME280;6774;48.208;10.766;2023-12-14T06:37:16;95020.03;;;6.00;93.18
13407;BME280;6774;48.208;10.766;2023-12-14T06:39:44;95015.91;;;6.06;93.00
13407;BME280;6774;48.208;10.766;2023-12-14T06:42:14;95019.38;;;5.98;93.58
13407;BME280;6774;48.208;10.766;2023-12-14T06:44:42;95033.03;;;5.77;94.77
13407;BME280;6774;48.208;10.766;2023-12-14T06:47:09;95039.75;;;5.71;94.94
13407;BME280;6774;48.208;10.766;2023-12-14T06:49:37;95039.25;;;5.76;95.04
13407;BME280;6774;48.208;10.766;2023-12-14T06:52:06;95046.59;;;5.81;94.89
13407;BME280;6774;48.208;10.766;2023-12-14T06:54:35;95045.81;;;5.72;95.06
13407;BME280;6774;48.208;10.766;2023-12-14T06:57:03;95060.34;;;5.75;95.23
13407;BME280;6774;48.208;10.766;2023-12-14T06:59:32;95057.25;;;5.79;95.40
13407;BME280;6774;48.208;10.766;2023-12-14T07:02:00;95069.63;;;5.93;95.03
13407;BME280;6774;48.208;10.766;2023-12-14T07:04:28;95067.34;;;5.98;94.81
13407;BME280;6774;48.208;10.766;2023-12-14T07:06:56;95068.94;;;6.08;94.29
13407;BME280;6774;48.208;10.766;2023-12-14T07:09:24;95075.56;;;6.26;93.68
13407;BME280;6774;48.208;10.766;2023-12-14T07:11:52;95085.19;;;6.34;93.36
13407;BME280;6774;48.208;10.766;2023-12-14T07:14:20;95086.44;;;6.46;93.00
13407;BME280;6774;48.208;10.766;2023-12-14T07:16:53;95088.38;;;6.52;92.75
13407;BME280;6774;48.208;10.766;2023-12-14T07:19:20;95085.75;;;6.52;92.93
13407;BME280;6774;48.208;10.766;2023-12-14T07:21:48;95093.56;;;6.61;92.27
13407;BME280;6774;48.208;10.766;2023-12-14T07:24:16;95101.59;;;6.59;92.48
13407;BME280;6774;48.208;10.766;2023-12-14T07:26:44;95099.75;;;6.68;92.02
13407;BME280;6774;48.208;10.766;2023-12-14T07:29:12;95101.72;;;6.66;91.78
13407;BME280;6774;48.208;10.766;2023-12-14T07:31:40;95111.50;;;6.72;91.69
13407;BME280;6774;48.208;10.766;2023-12-14T07:34:09;95111.50;;;6.72;91.69
13407;BME280;6774;48.208;10.766;2023-12-14T07:36:37;95109.88;;;6.71;91.77
13407;BME280;6774;48.208;10.766;2023-12-14T07:39:04;95112.69;;;6.69;91.79
13407;BME280;6774;48.208;10.766;2023-12-14T07:41:32;95114.63;;;6.67;91.68
13407;BME280;6774;48.208;10.766;2023-12-14T07:44:01;95121.28;;;6.55;92.31
13407;BME280;6774;48.208;10.766;2023-12-14T07:46:32;95125.03;;;6.61;92.06
13407;BME280;6774;48.208;10.766;2023-12-14T07:49:01;95122.78;;;6.49;92.21
13407;BME280;6774;48.208;10.766;2023-12-14T07:51:30;95136.50;;;6.60;92.07
13407;BME280;6774;48.208;10.766;2023-12-14T07:53:58;95137.81;;;6.55;92.57
13407;BME280;6774;48.208;10.766;2023-12-14T07:56:26;95144.69;;;6.56;92.19
13407;BME280;6774;48.208;10.766;2023-12-14T07:58:54;95153.47;;;6.72;91.94
13407;BME280;6774;48.208;10.766;2023-12-14T08:01:22;95155.44;;;6.70;91.79
13407;BME280;6774;48.208;10.766;2023-12-14T08:03:50;95154.06;;;6.82;91.48
13407;BME280;6774;48.208;10.766;2023-12-14T08:06:18;95153.88;;;6.83;91.54
13407;BME280;6774;48.208;10.766;2023-12-14T08:08:47;95162.00;;;6.66;91.67
13407;BME280;6774;48.208;10.766;2023-12-14T08:11:15;95161.28;;;6.80;91.67
13407;BME280;6774;48.208;10.766;2023-12-14T08:13:43;95167.84;;;6.76;91.67
13407;BME280;6774;48.208;10.766;2023-12-14T08:16:10;95161.97;;;6.74;91.95
13407;BME280;6774;48.208;10.766;2023-12-14T08:18:38;95179.69;;;6.72;91.58
13407;BME280;6774;48.208;10.766;2023-12-14T08:21:07;95168.88;;;6.67;92.07
13407;BME280;6774;48.208;10.766;2023-12-14T08:23:38;95178.44;;;6.60;92.43
13407;BME280;6774;48.208;10.766;2023-12-14T08:26:07;95183.16;;;6.25;93.79
13407;BME280;6774;48.208;10.766;2023-12-14T08:28:36;95182.72;;;6.13;94.25
13407;BME280;6774;48.208;10.766;2023-12-14T08:31:04;95195.25;;;6.34;93.41
13407;BME280;6774;48.208;10.766;2023-12-14T08:33:32;95194.31;;;6.19;93.90
13407;BME280;6774;48.208;10.766;2023-12-14T08:36:00;95195.88;;;6.36;94.19
13407;BME280;6774;48.208;10.766;2023-12-14T08:38:28;95207.34;;;6.43;94.30
13407;BME280;6774;48.208;10.766;2023-12-14T08:40:56;95219.44;;;6.52;94.09
13407;BME280;6774;48.208;10.766;2023-12-14T08:43:25;95222.28;;;6.26;94.11
13407;BME280;6774;48.208;10.766;2023-12-14T08:45:53;95223.75;;;6.21;94.54
13407;BME280;6774;48.208;10.766;2023-12-14T08:48:21;95220.50;;;6.19;95.15
13407;BME280;6774;48.208;10.766;2023-12-14T08:50:49;95238.47;;;6.30;94.93
13407;BME280;6774;48.208;10.766;2023-12-14T08:53:17;95242.63;;;6.16;94.84
13407;BME280;6774;48.208;10.766;2023-12-14T08:55:44;95248.97;;;6.30;94.89
13407;BME280;6774;48.208;10.766;2023-12-14T08:58:13;95260.81;;;6.02;96.36
13407;BME280;6774;48.208;10.766;2023-12-14T09:00:42;95260.81;;;6.10;96.11
13407;BME280;6774;48.208;10.766;2023-12-14T09:03:10;95252.13;;;6.09;95.81
13407;BME280;6774;48.208;10.766;2023-12-14T09:05:38;95264.06;;;6.20;96.10
13407;BME280;6774;48.208;10.766;2023-12-14T09:08:09;95272.91;;;6.11;95.84
13407;BME280;6774;48.208;10.766;2023-12-14T09:10:36;95275.69;;;6.17;95.35
13407;BME280;6774;48.208;10.766;2023-12-14T09:13:04;95274.69;;;6.26;95.65
13407;BME280;6774;48.208;10.766;2023-12-14T09:15:33;95279.28;;;6.33;95.72
13407;BME280;6774;48.208;10.766;2023-12-14T09:18:03;95280.56;;;6.45;95.14
13407;BME280;6774;48.208;10.766;2023-12-14T09:20:32;95284.34;;;6.34;95.08
13407;BME280;6774;48.208;10.766;2023-12-14T09:23:01;95287.81;;;6.18;94.87
13407;BME280;6774;48.208;10.766;2023-12-14T09:25:29;95285.19;;;6.18;94.28
13407;BME280;6774;48.208;10.766;2023-12-14T09:27:57;95292.56;;;6.15;94.13
13407;BME280;6774;48.208;10.766;2023-12-14T09:30:25;95296.31;;;6.28;94.00
13407;BME280;6774;48.208;10.766;2023-12-14T09:32:53;95295.31;;;6.21;94.35
13407;BME280;6774;48.208;10.766;2023-12-14T09:35:22;95302.72;;;6.10;94.54
13407;BME280;6774;48.208;10.766;2023-12-14T09:37:50;95308.78;;;6.02;94.20
13407;BME280;6774;48.208;10.766;2023-12-14T09:40:18;95308.41;;;6.21;93.05
13407;BME280;6774;48.208;10.766;2023-12-14T09:42:48;95314.81;;;6.03;93.20
13407;BME280;6774;48.208;10.766;2023-12-14T09:45:16;95316.28;;;5.81;94.34
13407;BME280;6774;48.208;10.766;2023-12-14T09:47:44;95325.31;;;6.03;93.02
13407;BME280;6774;48.208;10.766;2023-12-14T09:50:14;95328.25;;;6.16;92.49
13407;BME280;6774;48.208;10.766;2023-12-14T09:52:44;95331.69;;;6.41;91.80
13407;BME280;6774;48.208;10.766;2023-12-14T09:55:14;95340.03;;;6.44;91.45
13407;BME280;6774;48.208;10.766;2023-12-14T09:57:42;95332.16;;;6.36;90.94
13407;BME280;6774;48.208;10.766;2023-12-14T10:00:11;95332.75;;;6.79;90.41
13407;BME280;6774;48.208;10.766;2023-12-14T10:02:40;95329.78;;;6.74;89.36
13407;BME280;6774;48.208;10.766;2023-12-14T10:05:10;95338.59;;;6.89;89.71
13407;BME280;6774;48.208;10.766;2023-12-14T10:07:41;95336.59;;;6.99;89.04
13407;BME280;6774;48.208;10.766;2023-12-14T10:10:11;95329.75;;;7.29;87.81
13407;BME280;6774;48.208;10.766;2023-12-14T10:12:51;95332.19;;;7.31;87.55
13407;BME280;6774;48.208;10.766;2023-12-14T10:15:20;95333.16;;;7.38;87.31
13407;BME280;6774;48.208;10.766;2023-12-14T10:17:51;95331.16;;;7.40;87.45
13407;BME280;6774;48.208;10.766;2023-12-14T10:20:21;95331.50;;;7.37;88.03
13407;BME280;6774;48.208;10.766;2023-12-14T10:22:50;95342.00;;;7.06;88.60
13407;BME280;6774;48.208;10.766;2023-12-14T10:25:19;95344.78;;;7.04;89.57
13407;BME280;6774;48.208;10.766;2023-12-14T10:27:48;95336.63;;;6.91;89.63
13407;BME280;6774;48.208;10.766;2023-12-14T10:30:36;95351.69;;;7.05;89.98
13407;BME280;6774;48.208;10.766;2023-12-14T10:33:04;95356.09;;;7.05;90.26
13407;BME280;6774;48.208;10.766;2023-12-14T10:35:32;95360.84;;;7.09;90.58
13407;BME280;6774;48.208;10.766;2023-12-14T10:38:02;95359.41;;;6.99;90.42
13407;BME280;6774;48.208;10.766;2023-12-14T10:40:32;95355.88;;;7.23;88.79
13407;BME280;6774;48.208;10.766;2023-12-14T10:43:00;95354.84;;;7.32;88.72
13407;BME280;6774;48.208;10.766;2023-12-14T10:45:29;95368.13;;;7.69;88.94
13407;BME280;6774;48.208;10.766;2023-12-14T10:48:00;95365.16;;;7.64;86.68
13407;BME280;6774;48.208;10.766;2023-12-14T10:50:31;95364.81;;;7.67;87.82
13407;BME280;6774;48.208;10.766;2023-12-14T10:52:59;95375.69;;;7.64;87.77
13407;BME280;6774;48.208;10.766;2023-12-14T10:55:33;95375.59;;;8.04;86.68
13407;BME280;6774;48.208;10.766;2023-12-14T10:58:04;95371.22;;;7.96;85.77
13407;BME280;6774;48.208;10.766;2023-12-14T11:00:32;95388.38;;;7.84;85.05
13407;BME280;6774;48.208;10.766;2023-12-14T11:03:00;95395.53;;;7.98;86.29
13407;BME280;6774;48.208;10.766;2023-12-14T11:05:28;95382.38;;;7.67;85.44
13407;BME280;6774;48.208;10.766;2023-12-14T11:08:00;95389.25;;;8.22;86.05
13407;BME280;6774;48.208;10.766;2023-12-14T11:10:38;95392.97;;;8.36;85.02
13407;BME280;6774;48.208;10.766;2023-12-14T11:13:07;95389.56;;;8.50;82.72
13407;BME280;6774;48.208;10.766;2023-12-14T11:15:39;95391.78;;;8.76;83.67
13407;BME280;6774;48.208;10.766;2023-12-14T11:18:20;95397.09;;;8.91;80.97
13407;BME280;6774;48.208;10.766;2023-12-14T11:20:49;95396.72;;;8.79;83.04
13407;BME280;6774;48.208;10.766;2023-12-14T11:23:30;95401.81;;;8.12;83.77
13407;BME280;6774;48.208;10.766;2023-12-14T11:26:01;95407.25;;;8.10;84.39
13407;BME280;6774;48.208;10.766;2023-12-14T11:28:32;95406.53;;;7.93;85.51
13407;BME280;6774;48.208;10.766;2023-12-14T11:31:00;95409.69;;;7.89;86.11
13407;BME280;6774;48.208;10.766;2023-12-14T11:33:29;95404.63;;;8.10;84.98
13407;BME280;6774;48.208;10.766;2023-12-14T11:36:00;95408.66;;;7.98;85.69
13407;BME280;6774;48.208;10.766;2023-12-14T11:38:30;95407.19;;;7.95;85.60
13407;BME280;6774;48.208;10.766;2023-12-14T11:40:58;95420.53;;;7.86;85.61
13407;BME280;6774;48.208;10.766;2023-12-14T11:43:28;95417.91;;;7.86;86.34
13407;BME280;6774;48.208;10.766;2023-12-14T11:45:55;95421.88;;;7.82;86.28
13407;BME280;6774;48.208;10.766;2023-12-14T11:48:23;95421.06;;;8.04;86.03
13407;BME280;6774;48.208;10.766;2023-12-14T11:50:52;95427.50;;;8.02;87.21
13407;BME280;6774;48.208;10.766;2023-12-14T11:53:20;95432.94;;;8.00;87.08
13407;BME280;6774;48.208;10.766;2023-12-14T11:55:48;95433.31;;;7.97;85.43
13407;BME280;6774;48.208;10.766;2023-12-14T11:58:16;95430.53;;;7.59;86.13
13407;BME280;6774;48.208;10.766;2023-12-14T12:00:46;95434.66;;;7.85;87.44
13407;BME280;6774;48.208;10.766;2023-12-14T12:03:15;95441.53;;;7.86;86.68
13407;BME280;6774;48.208;10.766;2023-12-14T12:05:45;95441.94;;;7.75;86.49
13407;BME280;6774;48.208;10.766;2023-12-14T12:08:14;95443.50;;;7.92;86.03
13407;BME280;6774;48.208;10.766;2023-12-14T12:10:43;95449.66;;;8.07;86.34
13407;BME280;6774;48.208;10.766;2023-12-14T12:13:13;95447.44;;;7.96;85.32
13407;BME280;6774;48.208;10.766;2023-12-14T12:15:42;95450.66;;;8.06;86.28
13407;BME280;6774;48.208;10.766;2023-12-14T12:18:12;95447.84;;;8.31;86.42
13407;BME280;6774;48.208;10.766;2023-12-14T12:20:40;95447.75;;;7.93;87.88
13407;BME280;6774;48.208;10.766;2023-12-14T12:23:09;95455.94;;;7.98;87.13
13407;BME280;6774;48.208;10.766;2023-12-14T12:25:37;95449.53;;;8.01;85.85
13407;BME280;6774;48.208;10.766;2023-12-14T12:28:05;95436.28;;;7.86;87.23
13407;BME280;6774;48.208;10.766;2023-12-14T12:30:33;95450.28;;;7.86;86.64
13407;BME280;6774;48.208;10.766;2023-12-14T12:33:04;95447.00;;;7.76;86.27
13407;BME280;6774;48.208;10.766;2023-12-14T12:35:59;95452.75;;;7.80;87.22
13407;BME280;6774;48.208;10.766;2023-12-14T12:38:27;95452.31;;;7.99;86.76
13407;BME280;6774;48.208;10.766;2023-12-14T12:40:55;95457.38;;;8.09;86.18
13407;BME280;6774;48.208;10.766;2023-12-14T12:43:23;95461.03;;;7.99;86.46
13407;BME280;6774;48.208;10.766;2023-12-14T12:45:50;95458.22;;;8.01;86.07
13407;BME280;6774;48.208;10.766;2023-12-14T12:48:18;95462.75;;;8.15;87.17
13407;BME280;6774;48.208;10.766;2023-12-14T12:50:50;95468.34;;;7.81;85.26
13407;BME280;6774;48.208;10.766;2023-12-14T12:53:19;95467.97;;;7.92;86.30
13407;BME280;6774;48.208;10.766;2023-12-14T12:55:47;95471.78;;;7.82;86.16
13407;BME280;6774;48.208;10.766;2023-12-14T12:58:14;95465.56;;;8.14;86.19
13407;BME280;6774;48.208;10.766;2023-12-14T13:00:42;95477.19;;;7.88;86.24
13407;BME280;6774;48.208;10.766;2023-12-14T13:03:10;95477.09;;;7.65;87.15
13407;BME280;6774;48.208;10.766;2023-12-14T13:05:39;95483.22;;;7.97;86.63
13407;BME280;6774;48.208;10.766;2023-12-14T13:08:07;95487.94;;;8.02;86.43
13407;BME280;6774;48.208;10.766;2023-12-14T13:10:36;95492.59;;;8.22;86.14
13407;BME280;6774;48.208;10.766;2023-12-14T13:13:05;95494.06;;;7.94;87.25
13407;BME280;6774;48.208;10.766;2023-12-14T13:15:34;95502.09;;;8.01;88.23
13407;BME280;6774;48.208;10.766;2023-12-14T13:18:05;95486.72;;;7.81;88.46